Terminal Aerodrome Forecast
Issued by NWS

Home | Current Version | Previous Version | Text Only | Print | Product List | Glossary On
Versions: 1 2 3 4 5 6 7 8 9 10 11 12 13 14 15 16 17 18 19 20 21 22 23 24 25 26 27 28 29 30
000
FTUS43 KLOT 310300 AAA
TAFGYY
TAF AMD
KGYY 310300Z 3103/3124 27006KT P6SM BKN060
     FM310700 30011G17KT P6SM -SHRA SCT020 OVC035
     FM310900 32016G26KT P6SM -SHRA SCT010 OVC020
     FM311200 34025G34KT 6SM -SHRASN BKN015 OVC030
     FM311500 36028G42KT 4SM RASN SCT009 BKN015 OVC025
      TEMPO 3118/3122 1SM TSRASN OVC009CB=

USA.gov is the U.S. government's official web portal to all federal, state and local government web resources and services.